Time;durP1;ratioP1;P1;durP2;ratioP2;P2;SDS_P1;SDS_P2;PMS_P1;PMS_P2;Temp;Humidity;BMP_temperature;BMP_pressure;BME280_temperature;BME280_humidity;BME280_pressure;Samples;Min_cycle;Max_cycle;Signal;HPM_P1;HPM_P2
2023/08/16 00:00:25;;;;;;;15.38;9.35;;;17.80;99.90;;;;;;5069847;28;20226;-82
2023/08/16 00:02:52;;;;;;;17.80;9.90;;;17.70;99.90;;;;;;5072831;28;20219;-82
2023/08/16 00:05:18;;;;;;;16.17;9.48;;;17.60;99.90;;;;;;5074967;28;20202;-82
2023/08/16 00:07:46;;;;;;;13.00;9.38;;;17.50;99.90;;;;;;5081724;28;20668;-81
2023/08/16 00:10:13;;;;;;;19.60;10.43;;;17.60;99.90;;;;;;5072757;28;20199;-82
2023/08/16 00:12:41;;;;;;;15.52;10.07;;;17.50;99.90;;;;;;5076614;28;20260;-82
2023/08/16 00:15:09;;;;;;;14.85;9.10;;;17.60;99.90;;;;;;5076101;28;20293;-82
2023/08/16 00:17:36;;;;;;;15.73;9.50;;;17.60;99.90;;;;;;5078775;28;20202;-82
2023/08/16 00:20:04;;;;;;;16.58;9.85;;;17.60;99.90;;;;;;5081451;28;20217;-82
2023/08/16 00:22:31;;;;;;;17.95;9.10;;;17.60;99.90;;;;;;5072484;28;20747;-81
2023/08/16 00:24:58;;;;;;;13.82;9.43;;;17.50;99.90;;;;;;5081360;28;20202;-82
2023/08/16 00:27:25;;;;;;;17.98;9.90;;;17.50;99.90;;;;;;5069138;28;20644;-82
2023/08/16 00:29:53;;;;;;;14.23;9.65;;;17.50;99.90;;;;;;5074567;28;20314;-82
2023/08/16 00:32:19;;;;;;;15.90;10.48;;;17.50;99.90;;;;;;5072153;28;20281;-82
2023/08/16 00:34:46;;;;;;;16.40;10.23;;;17.50;99.90;;;;;;5073792;28;20211;-82
2023/08/16 00:37:13;;;;;;;14.98;10.00;;;17.40;99.90;;;;;;5076475;28;20226;-82
2023/08/16 00:39:40;;;;;;;14.60;9.90;;;17.50;99.90;;;;;;5081139;28;20275;-82
2023/08/16 00:42:07;;;;;;;15.77;9.95;;;17.40;99.90;;;;;;5067067;28;20692;-81
2023/08/16 00:44:34;;;;;;;19.02;10.38;;;17.40;99.90;;;;;;5062216;28;20314;-82
2023/08/16 00:47:02;;;;;;;15.88;10.10;;;17.40;99.90;;;;;;5070537;28;20209;-82
2023/08/16 00:49:31;;;;;;;18.33;10.20;;;17.40;99.90;;;;;;5082140;28;20230;-82
2023/08/16 00:51:58;;;;;;;16.92;10.65;;;17.30;99.90;;;;;;5079119;28;20324;-83
2023/08/16 00:54:25;;;;;;;14.85;10.98;;;17.30;99.90;;;;;;5082884;28;20208;-82
2023/08/16 00:56:52;;;;;;;18.05;11.40;;;17.40;99.90;;;;;;5079249;28;20205;-82
2023/08/16 00:59:20;;;;;;;15.10;9.73;;;17.30;99.90;;;;;;5080380;28;20230;-82
2023/08/16 01:01:47;;;;;;;15.32;10.38;;;17.40;99.90;;;;;;5074492;28;20213;-82
2023/08/16 01:04:16;;;;;;;19.13;10.30;;;17.20;99.90;;;;;;5062005;28;20247;-82
2023/08/16 01:06:42;;;;;;;16.67;9.95;;;17.20;99.90;;;;;;5079172;28;20209;-82
2023/08/16 01:09:09;;;;;;;18.25;10.82;;;17.20;99.90;;;;;;5077878;28;20281;-82
2023/08/16 01:11:48;;;;;;;15.05;11.23;;;17.10;99.90;;;;;;5078459;28;20623;-82
2023/08/16 01:14:22;;;;;;;18.20;10.40;;;17.10;99.90;;;;;;5081963;28;20194;-82
2023/08/16 01:16:50;;;;;;;18.77;11.32;;;17.10;99.90;;;;;;5064893;28;20203;-82
2023/08/16 01:19:28;;;;;;;15.07;10.85;;;17.20;99.90;;;;;;5072665;28;20228;-82
2023/08/16 01:22:05;;;;;;;18.77;11.55;;;17.20;99.90;;;;;;5077330;28;20218;-82
2023/08/16 01:24:39;;;;;;;19.65;11.25;;;17.10;99.90;;;;;;5074205;28;20225;-82
2023/08/16 01:27:07;;;;;;;16.63;10.45;;;17.30;99.90;;;;;;5082101;28;20206;-81
2023/08/16 01:29:35;;;;;;;16.20;10.90;;;17.00;99.90;;;;;;5080404;28;20261;-82
2023/08/16 01:32:03;;;;;;;17.85;10.85;;;17.10;99.90;;;;;;5062910;28;20649;-82
2023/08/16 01:34:29;;;;;;;17.55;11.52;;;17.10;99.90;;;;;;5080561;28;20220;-82
2023/08/16 01:36:56;;;;;;;18.75;11.27;;;17.10;99.90;;;;;;5081807;28;20206;-82
2023/08/16 01:39:24;;;;;;;19.55;10.82;;;17.10;99.90;;;;;;5082258;28;20230;-82
2023/08/16 01:41:53;;;;;;;17.38;11.20;;;17.10;99.90;;;;;;5076913;28;20711;-82
2023/08/16 01:44:22;;;;;;;15.35;9.80;;;17.10;99.90;;;;;;5070416;28;20273;-82
2023/08/16 01:46:50;;;;;;;17.83;11.23;;;17.10;99.90;;;;;;5072888;28;20624;-82
2023/08/16 01:49:18;;;;;;;14.77;10.48;;;17.10;99.90;;;;;;5077251;28;20305;-82
2023/08/16 01:51:44;;;;;;;16.27;10.65;;;17.10;99.90;;;;;;5080524;28;20217;-81
2023/08/16 01:54:12;;;;;;;15.43;9.82;;;17.10;99.90;;;;;;5107167;28;20258;-81
2023/08/16 01:56:39;;;;;;;12.23;9.90;;;17.20;99.90;;;;;;5081108;28;20652;-82
2023/08/16 01:59:06;;;;;;;17.67;9.90;;;17.20;99.90;;;;;;5079100;28;20229;-82
2023/08/16 02:01:34;;;;;;;20.80;11.13;;;17.10;99.90;;;;;;5065851;28;20230;-82
2023/08/16 02:04:01;;;;;;;16.30;9.95;;;17.10;99.90;;;;;;5067362;28;20247;-82
2023/08/16 02:06:29;;;;;;;16.10;10.68;;;17.10;99.90;;;;;;5080640;28;20202;-81
2023/08/16 02:08:56;;;;;;;19.67;10.98;;;16.90;99.90;;;;;;5070380;28;20302;-82
2023/08/16 02:11:22;;;;;;;16.02;11.63;;;16.90;99.90;;;;;;5070433;28;20744;-82
2023/08/16 02:13:49;;;;;;;17.23;10.60;;;17.00;99.90;;;;;;5064428;28;20765;-82
2023/08/16 02:16:16;;;;;;;15.02;9.95;;;17.00;99.90;;;;;;5070498;28;20648;-82
2023/08/16 02:18:44;;;;;;;15.02;10.43;;;17.00;99.90;;;;;;5079589;28;20313;-82
2023/08/16 02:21:11;;;;;;;14.35;9.38;;;16.90;99.90;;;;;;5085583;28;20544;-82
2023/08/16 02:23:38;;;;;;;16.40;9.73;;;16.90;99.90;;;;;;5077401;28;20278;-82
2023/08/16 02:26:05;;;;;;;15.77;10.25;;;16.90;99.90;;;;;;5080165;28;20584;-82
2023/08/16 02:28:31;;;;;;;16.58;10.32;;;16.90;99.90;;;;;;5076431;28;20590;-82
2023/08/16 02:31:05;;;;;;;15.05;10.07;;;16.90;99.90;;;;;;5085091;28;20198;-82
2023/08/16 02:33:32;;;;;;;14.57;9.45;;;16.90;99.90;;;;;;5066897;28;20225;-82
2023/08/16 02:36:01;;;;;;;18.98;10.23;;;17.00;99.90;;;;;;5065823;28;20203;-82
2023/08/16 02:38:27;;;;;;;15.65;10.25;;;16.90;99.90;;;;;;5077944;28;20604;-82
2023/08/16 02:40:54;;;;;;;13.15;9.27;;;17.00;99.90;;;;;;5074612;28;20206;-83
2023/08/16 02:43:21;;;;;;;15.13;10.23;;;17.00;99.90;;;;;;5082966;28;20224;-83
2023/08/16 02:45:48;;;;;;;16.42;10.77;;;17.00;99.90;;;;;;5069733;28;20715;-82
2023/08/16 02:48:15;;;;;;;17.25;10.90;;;17.00;99.90;;;;;;5075292;28;20295;-83
2023/08/16 02:50:42;;;;;;;20.08;10.35;;;16.90;99.90;;;;;;5069484;28;20195;-82
2023/08/16 02:53:10;;;;;;;16.98;10.60;;;16.90;99.90;;;;;;5064822;28;20202;-82
2023/08/16 02:55:36;;;;;;;15.48;10.50;;;16.90;99.90;;;;;;5079555;28;20262;-82
2023/08/16 02:58:04;;;;;;;19.00;9.55;;;16.80;99.90;;;;;;5077675;28;20202;-83
2023/08/16 03:00:31;;;;;;;16.75;10.32;;;16.70;99.90;;;;;;5085285;28;20226;-82
2023/08/16 03:02:57;;;;;;;15.85;9.75;;;16.70;99.90;;;;;;5083963;28;20262;-82
2023/08/16 03:05:24;;;;;;;14.00;9.40;;;16.60;99.90;;;;;;5080876;28;20206;-82
2023/08/16 03:07:51;;;;;;;18.27;10.05;;;16.80;99.90;;;;;;5058271;28;20202;-83
2023/08/16 03:10:19;;;;;;;17.02;9.80;;;16.80;99.90;;;;;;5058621;28;20214;-82
2023/08/16 03:12:46;;;;;;;14.38;9.45;;;16.80;99.90;;;;;;5059475;28;20752;-83
2023/08/16 03:15:13;;;;;;;18.35;10.20;;;16.70;99.90;;;;;;5059766;28;20205;-82
2023/08/16 03:17:40;;;;;;;43.65;33.38;;;16.70;99.90;;;;;;5060157;28;20598;-81
2023/08/16 03:20:08;;;;;;;18.00;11.50;;;16.60;99.90;;;;;;5059822;28;20223;-82
2023/08/16 03:22:35;;;;;;;16.08;10.38;;;16.60;99.90;;;;;;5059760;28;20195;-81
2023/08/16 03:25:02;;;;;;;19.65;9.88;;;16.70;99.90;;;;;;5060672;28;20246;-82
2023/08/16 03:27:30;;;;;;;14.40;9.52;;;16.60;99.90;;;;;;5078506;28;20565;-82
2023/08/16 03:29:57;;;;;;;13.95;9.38;;;16.70;99.90;;;;;;5078848;28;20226;-82
2023/08/16 03:32:24;;;;;;;13.80;9.13;;;16.60;99.90;;;;;;5078802;28;20245;-82
2023/08/16 03:34:51;;;;;;;14.55;9.20;;;16.70;99.90;;;;;;5077757;28;20218;-81
2023/08/16 03:37:18;;;;;;;14.13;9.82;;;16.50;99.90;;;;;;5079381;28;20202;-82
2023/08/16 03:39:44;;;;;;;13.77;9.95;;;16.70;99.90;;;;;;5078473;28;20218;-82
2023/08/16 03:42:11;;;;;;;22.65;11.40;;;16.90;99.90;;;;;;5078833;28;20209;-81
2023/08/16 03:44:39;;;;;;;16.30;10.95;;;16.80;99.90;;;;;;5080100;28;20218;-82
2023/08/16 03:47:06;;;;;;;16.55;11.32;;;16.70;99.90;;;;;;5078441;28;20276;-82
2023/08/16 03:49:33;;;;;;;14.50;10.93;;;16.70;99.90;;;;;;5078080;28;20241;-81
2023/08/16 03:52:00;;;;;;;17.63;10.90;;;16.70;99.90;;;;;;5078442;28;20210;-82
2023/08/16 03:54:26;;;;;;;15.60;10.00;;;16.80;99.90;;;;;;5079933;28;20206;-82
2023/08/16 03:56:56;;;;;;;15.32;9.60;;;16.80;99.90;;;;;;5082848;28;20289;-82
2023/08/16 03:59:23;;;;;;;15.85;10.02;;;16.80;99.90;;;;;;5083124;28;20264;-82
2023/08/16 04:01:51;;;;;;;12.90;9.27;;;16.70;99.90;;;;;;5073109;28;20649;-82
2023/08/16 04:04:18;;;;;;;17.98;10.40;;;16.70;99.90;;;;;;5074742;28;20224;-81
2023/08/16 04:06:44;;;;;;;13.93;10.18;;;16.70;99.90;;;;;;5079126;28;20204;-82
2023/08/16 04:09:11;;;;;;;17.60;10.25;;;16.70;99.90;;;;;;5077378;28;20230;-82
2023/08/16 04:11:38;;;;;;;13.68;9.63;;;16.60;99.90;;;;;;5063497;28;20213;-82
2023/08/16 04:14:05;;;;;;;11.52;9.50;;;16.60;99.90;;;;;;5055121;28;20293;-83
2023/08/16 04:16:32;;;;;;;13.18;9.82;;;16.70;99.90;;;;;;5058798;28;20902;-83
2023/08/16 04:19:01;;;;;;;14.57;10.13;;;16.70;99.90;;;;;;5058027;28;20222;-83
2023/08/16 04:21:27;;;;;;;14.95;10.23;;;16.70;99.90;;;;;;5058171;28;20290;-82
2023/08/16 04:23:54;;;;;;;12.20;10.05;;;16.70;99.90;;;;;;5057444;28;20237;-82
2023/08/16 04:26:21;;;;;;;13.75;9.98;;;16.60;99.90;;;;;;5057335;28;20237;-83
2023/08/16 04:28:48;;;;;;;12.75;9.13;;;16.70;99.90;;;;;;5056947;28;20230;-82
2023/08/16 04:31:15;;;;;;;13.52;9.63;;;16.80;99.90;;;;;;5057543;28;20261;-82
2023/08/16 04:33:41;;;;;;;15.15;9.57;;;16.70;99.90;;;;;;5058096;28;20217;-83
2023/08/16 04:36:09;;;;;;;12.30;10.18;;;16.70;99.90;;;;;;5072467;28;20213;-83
2023/08/16 04:38:36;;;;;;;14.05;10.02;;;16.50;99.90;;;;;;5068056;28;20234;-83
2023/08/16 04:41:03;;;;;;;14.32;11.45;;;16.90;99.90;;;;;;5057327;28;20199;-82
2023/08/16 04:43:30;;;;;;;16.20;10.27;;;16.90;99.90;;;;;;5057670;28;20217;-83
2023/08/16 04:45:57;;;;;;;14.50;10.20;;;16.80;99.90;;;;;;5057596;28;20213;-84
2023/08/16 04:48:23;;;;;;;13.68;10.43;;;16.90;99.90;;;;;;5056476;28;20231;-82
2023/08/16 04:50:50;;;;;;;13.60;9.88;;;16.80;99.90;;;;;;5056726;28;20607;-83
2023/08/16 04:53:18;;;;;;;14.57;10.88;;;16.90;99.90;;;;;;5057238;28;20191;-83
2023/08/16 04:55:45;;;;;;;13.38;9.90;;;16.80;99.90;;;;;;5057231;28;20207;-83
2023/08/16 04:58:13;;;;;;;14.70;10.27;;;16.80;99.90;;;;;;5056044;28;20246;-83
2023/08/16 05:00:40;;;;;;;16.67;10.70;;;17.00;99.90;;;;;;5056962;28;20211;-83
2023/08/16 05:03:07;;;;;;;14.85;9.65;;;17.10;99.90;;;;;;5056247;28;20203;-83
2023/08/16 05:05:34;;;;;;;12.57;8.98;;;17.10;99.90;;;;;;5056515;28;20234;-83
2023/08/16 05:08:01;;;;;;;12.48;9.27;;;17.20;99.90;;;;;;5061615;28;20578;-83
2023/08/16 05:10:29;;;;;;;15.13;9.57;;;17.30;99.90;;;;;;5072509;28;20286;-83
2023/08/16 05:12:55;;;;;;;10.82;8.75;;;17.30;99.90;;;;;;5055954;28;20210;-83
2023/08/16 05:15:22;;;;;;;12.43;9.13;;;17.30;99.90;;;;;;5055602;28;20226;-83
2023/08/16 05:17:49;;;;;;;13.45;9.50;;;17.40;99.90;;;;;;5056453;28;20229;-82
2023/08/16 05:20:16;;;;;;;13.05;9.32;;;17.40;99.90;;;;;;5056618;28;20680;-83
2023/08/16 05:22:43;;;;;;;12.15;8.60;;;17.50;99.90;;;;;;5056485;28;20214;-82
2023/08/16 05:25:10;;;;;;;12.38;9.30;;;17.50;99.90;;;;;;5054620;28;20222;-83
2023/08/16 05:27:38;;;;;;;13.70;9.18;;;17.50;99.90;;;;;;5055622;28;20258;-83
2023/08/16 05:30:06;;;;;;;12.93;9.77;;;17.50;99.90;;;;;;5055428;28;20223;-83
2023/08/16 05:32:33;;;;;;;13.35;9.45;;;17.50;99.90;;;;;;5057097;28;20582;-83
2023/08/16 05:35:00;;;;;;;14.48;9.50;;;17.70;99.90;;;;;;5056215;28;20285;-83
2023/08/16 05:37:27;;;;;;;11.32;8.07;;;17.80;99.90;;;;;;5056142;28;20229;-83
2023/08/16 05:39:53;;;;;;;11.75;7.38;;;18.00;99.90;;;;;;5068451;28;20221;-82
2023/08/16 05:42:20;;;;;;;8.77;6.45;;;18.10;99.90;;;;;;5074704;28;20210;-83
2023/08/16 05:44:48;;;;;;;12.63;6.78;;;18.30;99.90;;;;;;5059445;28;20235;-83
2023/08/16 05:47:15;;;;;;;10.60;6.63;;;18.20;99.90;;;;;;5067003;28;20217;-83
2023/08/16 05:49:42;;;;;;;8.65;5.88;;;18.30;99.90;;;;;;5072915;28;20218;-83
2023/08/16 05:52:09;;;;;;;7.97;5.80;;;18.30;99.90;;;;;;5069994;28;20204;-83
2023/08/16 05:54:36;;;;;;;11.70;6.00;;;18.20;99.90;;;;;;5067389;28;20512;-83
2023/08/16 05:57:03;;;;;;;9.90;6.30;;;18.30;99.90;;;;;;5075043;28;20206;-83
2023/08/16 05:59:29;;;;;;;10.55;6.30;;;18.20;99.90;;;;;;5076303;28;20293;-83
2023/08/16 06:01:58;;;;;;;8.38;5.60;;;18.10;99.90;;;;;;5072993;28;20206;-82
2023/08/16 06:04:25;;;;;;;9.38;5.82;;;18.20;99.90;;;;;;5055847;28;20222;-83
2023/08/16 06:06:52;;;;;;;10.50;6.07;;;18.20;99.90;;;;;;5055577;28;20301;-83
2023/08/16 06:09:19;;;;;;;10.55;6.15;;;18.30;99.90;;;;;;5053168;28;20237;-83
2023/08/16 06:11:46;;;;;;;7.88;5.68;;;18.30;99.90;;;;;;5055842;28;20234;-83
2023/08/16 06:14:12;;;;;;;11.45;5.63;;;18.40;99.90;;;;;;5055826;28;20199;-83
2023/08/16 06:16:39;;;;;;;10.02;5.68;;;18.60;99.90;;;;;;5055348;28;20199;-83
2023/08/16 06:19:08;;;;;;;10.73;5.95;;;18.50;99.90;;;;;;5055223;28;20227;-82
2023/08/16 06:21:35;;;;;;;10.57;6.15;;;18.50;99.90;;;;;;5056957;28;20265;-81
2023/08/16 06:24:02;;;;;;;11.30;6.75;;;18.60;99.90;;;;;;5075638;28;20208;-83
2023/08/16 06:26:29;;;;;;;10.25;5.63;;;18.50;99.90;;;;;;5078117;28;20207;-83
2023/08/16 06:28:56;;;;;;;10.10;5.63;;;18.60;99.90;;;;;;5077888;28;20408;-83
2023/08/16 06:31:22;;;;;;;8.32;6.03;;;18.40;99.90;;;;;;5077063;28;20197;-83
2023/08/16 06:33:49;;;;;;;10.35;6.05;;;18.40;99.90;;;;;;5078244;28;20204;-82
2023/08/16 06:36:18;;;;;;;8.52;6.82;;;18.60;99.90;;;;;;5070719;28;20209;-83
2023/08/16 06:38:45;;;;;;;11.68;6.35;;;18.50;99.90;;;;;;5078072;28;20256;-83
2023/08/16 06:41:12;;;;;;;10.43;7.28;;;18.60;99.90;;;;;;5078521;28;20202;-82
2023/08/16 06:43:40;;;;;;;13.27;7.53;;;18.40;99.90;;;;;;5059606;28;20206;-82
2023/08/16 06:46:06;;;;;;;9.68;6.28;;;18.60;99.90;;;;;;5057982;28;20231;-83
2023/08/16 06:48:33;;;;;;;11.43;7.55;;;18.70;99.90;;;;;;5057077;28;20226;-82
2023/08/16 06:51:00;;;;;;;10.00;7.00;;;18.60;99.90;;;;;;5058572;28;20581;-81
2023/08/16 06:53:28;;;;;;;8.77;7.13;;;18.80;99.90;;;;;;5059383;28;20211;-82
2023/08/16 06:55:55;;;;;;;8.63;7.35;;;18.80;99.90;;;;;;5059287;28;20203;-83
2023/08/16 06:58:22;;;;;;;9.50;7.22;;;18.90;99.90;;;;;;5059055;28;20309;-82
2023/08/16 07:00:49;;;;;;;8.77;7.00;;;18.90;99.90;;;;;;5057951;28;20207;-81
2023/08/16 07:03:17;;;;;;;10.45;6.47;;;18.80;99.90;;;;;;5073583;28;20229;-81
2023/08/16 07:05:44;;;;;;;8.25;6.88;;;19.10;99.90;;;;;;5078418;28;20244;-82
2023/08/16 07:08:11;;;;;;;11.40;6.70;;;19.00;99.90;;;;;;5078391;28;20618;-81
2023/08/16 07:10:39;;;;;;;9.30;5.82;;;19.10;99.90;;;;;;5073443;28;20195;-82
2023/08/16 07:13:05;;;;;;;8.07;5.88;;;19.00;99.90;;;;;;5056243;28;20648;-82
2023/08/16 07:15:32;;;;;;;10.48;6.22;;;19.10;99.90;;;;;;5058475;28;20233;-83
2023/08/16 07:17:59;;;;;;;13.98;6.47;;;19.10;99.90;;;;;;5057306;28;20679;-81
2023/08/16 07:20:26;;;;;;;10.13;6.00;;;19.20;99.90;;;;;;5058359;28;20298;-82
2023/08/16 07:22:53;;;;;;;9.27;5.90;;;19.20;99.90;;;;;;5057694;28;20232;-82
2023/08/16 07:25:20;;;;;;;8.65;5.97;;;19.20;99.90;;;;;;5057673;28;20309;-82
2023/08/16 07:27:48;;;;;;;9.40;5.20;;;19.20;99.90;;;;;;5058153;28;20733;-81
2023/08/16 07:30:15;;;;;;;8.68;5.65;;;19.30;99.90;;;;;;5059039;28;20210;-81
2023/08/16 07:32:41;;;;;;;7.57;5.15;;;19.30;99.90;;;;;;5058934;28;20653;-81
2023/08/16 07:35:09;;;;;;;7.25;4.40;;;19.30;99.90;;;;;;5058262;28;20203;-81
2023/08/16 07:37:36;;;;;;;6.32;4.45;;;19.30;99.90;;;;;;5057438;28;20305;-80
2023/08/16 07:40:04;;;;;;;7.25;4.47;;;19.10;99.90;;;;;;5057868;28;20223;-81
2023/08/16 07:42:31;;;;;;;9.27;4.70;;;19.20;99.90;;;;;;5076327;28;20207;-82
2023/08/16 07:45:02;;;;;;;7.97;4.22;;;19.20;99.90;;;;;;5078409;28;20249;-81
2023/08/16 07:47:29;;;;;;;9.10;4.50;;;19.20;99.90;;;;;;5070309;28;20203;-81
2023/08/16 07:49:56;;;;;;;6.75;4.00;;;19.10;99.90;;;;;;5077580;28;20225;-81
2023/08/16 07:52:22;;;;;;;7.60;4.15;;;19.00;99.90;;;;;;5078241;28;20228;-80
2023/08/16 07:54:49;;;;;;;4.45;3.70;;;19.10;99.90;;;;;;5076858;28;20222;-81
2023/08/16 07:57:16;;;;;;;6.40;3.50;;;19.20;99.90;;;;;;5077096;28;20203;-83
2023/08/16 07:59:43;;;;;;;6.25;3.63;;;19.40;99.90;;;;;;5077327;28;20218;-82
2023/08/16 08:02:12;;;;;;;6.65;3.72;;;19.60;99.90;;;;;;5068275;28;20210;-81
2023/08/16 08:04:39;;;;;;;4.53;3.20;;;19.70;99.90;;;;;;5058778;28;20210;-81
2023/08/16 08:07:06;;;;;;;7.03;3.33;;;19.60;99.90;;;;;;5058327;28;20207;-81
2023/08/16 08:09:33;;;;;;;6.57;3.30;;;19.80;99.90;;;;;;5055836;28;20692;-81
2023/08/16 08:12:01;;;;;;;6.22;3.42;;;20.10;99.90;;;;;;5062351;28;20266;-82
2023/08/16 08:14:28;;;;;;;6.90;3.78;;;20.30;99.90;;;;;;5077373;28;20202;-82
2023/08/16 08:16:56;;;;;;;4.93;3.03;;;20.10;99.90;;;;;;5073697;28;20210;-82
2023/08/16 08:19:24;;;;;;;3.13;2.83;;;20.20;99.90;;;;;;5074614;28;20305;-82
2023/08/16 08:21:51;;;;;;;4.47;3.13;;;20.10;99.90;;;;;;5074784;28;20211;-83
2023/08/16 08:24:18;;;;;;;8.18;3.05;;;20.20;99.90;;;;;;5056983;28;20293;-82
2023/08/16 08:26:45;;;;;;;4.97;2.70;;;20.10;99.90;;;;;;5057604;28;20283;-81
2023/08/16 08:29:11;;;;;;;4.28;2.92;;;20.20;99.90;;;;;;5056389;28;20227;-82
2023/08/16 08:31:38;;;;;;;7.00;2.70;;;20.30;99.90;;;;;;5056917;28;20202;-82
2023/08/16 08:34:05;;;;;;;7.35;3.42;;;20.20;99.90;;;;;;5056882;28;20263;-82
2023/08/16 08:36:33;;;;;;;3.05;2.60;;;20.30;99.90;;;;;;5058550;28;20199;-81
2023/08/16 08:39:15;;;;;;;5.63;2.88;;;20.50;99.90;;;;;;5077106;28;20230;-82
2023/08/16 08:41:52;;;;;;;6.43;3.10;;;20.30;99.90;;;;;;5077348;28;20305;-81
2023/08/16 08:44:20;;;;;;;4.82;2.83;;;20.10;99.90;;;;;;5075631;28;20206;-80
2023/08/16 08:46:48;;;;;;;11.38;3.30;;;20.30;99.90;;;;;;5077705;28;20692;-81
2023/08/16 08:49:15;;;;;;;2.78;2.38;;;20.30;99.90;;;;;;5077213;28;20226;-81
2023/08/16 08:51:44;;;;;;;6.47;3.03;;;20.50;99.90;;;;;;5076438;28;20202;-82
2023/08/16 08:54:11;;;;;;;4.78;2.92;;;20.60;99.90;;;;;;5076971;28;20210;-81
2023/08/16 08:56:38;;;;;;;6.65;3.00;;;20.50;99.90;;;;;;5076079;28;20232;-82
2023/08/16 08:59:07;;;;;;;6.07;2.90;;;20.40;99.90;;;;;;5067348;28;20700;-82
2023/08/16 09:01:35;;;;;;;3.30;2.63;;;20.30;99.90;;;;;;5057519;28;20695;-82
2023/08/16 09:04:03;;;;;;;3.47;2.50;;;20.30;99.90;;;;;;5058419;28;20203;-82
2023/08/16 09:06:30;;;;;;;3.35;2.83;;;20.40;99.90;;;;;;5060032;28;20218;-82
2023/08/16 09:08:59;;;;;;;5.90;3.13;;;20.60;99.90;;;;;;5075196;28;20313;-81
2023/08/16 09:11:26;;;;;;;5.18;3.08;;;20.50;99.90;;;;;;5085919;28;20202;-82
2023/08/16 09:13:54;;;;;;;6.18;3.08;;;20.50;99.90;;;;;;5076655;28;20232;-81
2023/08/16 09:16:21;;;;;;;6.18;2.95;;;20.60;99.90;;;;;;5078161;28;20195;-81
2023/08/16 09:18:48;;;;;;;5.13;3.30;;;20.70;99.90;;;;;;5076672;28;20724;-81
2023/08/16 09:21:18;;;;;;;7.43;3.40;;;20.60;99.90;;;;;;5076919;28;20202;-82
2023/08/16 09:23:45;;;;;;;4.18;2.97;;;20.60;99.90;;;;;;5077546;28;20720;-81
2023/08/16 09:26:18;;;;;;;5.25;3.22;;;20.90;99.90;;;;;;5077194;28;20218;-81
2023/08/16 09:28:45;;;;;;;7.65;3.20;;;21.00;99.90;;;;;;5057413;28;20223;-81
2023/08/16 09:31:11;;;;;;;5.65;3.40;;;20.90;99.90;;;;;;5077132;28;20258;-81
2023/08/16 09:33:39;;;;;;;5.50;3.40;;;20.80;99.90;;;;;;5072201;28;20208;-81
2023/08/16 09:36:06;;;;;;;5.85;3.08;;;21.30;99.90;;;;;;5076065;28;20202;-81
2023/08/16 09:38:39;;;;;;;7.93;3.28;;;21.50;99.90;;;;;;5058952;28;20258;-81
2023/08/16 09:41:13;;;;;;;7.97;3.60;;;21.30;99.90;;;;;;5059511;28;20241;-81
2023/08/16 09:43:41;;;;;;;6.20;3.55;;;21.70;99.90;;;;;;5068673;28;20199;-81
2023/08/16 09:46:08;;;;;;;7.65;3.70;;;21.80;99.90;;;;;;5072910;28;20698;-81
2023/08/16 09:48:35;;;;;;;6.68;3.50;;;21.90;99.90;;;;;;5065286;28;20246;-81
2023/08/16 09:51:03;;;;;;;4.68;3.97;;;22.10;99.90;;;;;;5066560;28;20207;-82
2023/08/16 09:53:30;;;;;;;7.28;4.18;;;22.30;99.90;;;;;;5072192;28;20255;-81
2023/08/16 09:56:00;;;;;;;8.27;3.70;;;22.20;99.90;;;;;;5074554;28;20202;-80
2023/08/16 09:58:28;;;;;;;6.70;3.75;;;22.40;99.90;;;;;;5072306;28;20229;-80
2023/08/16 10:00:58;;;;;;;5.93;3.80;;;22.70;99.90;;;;;;5057608;28;20211;-80
2023/08/16 10:03:25;;;;;;;7.75;4.13;;;22.70;99.90;;;;;;5058945;28;20211;-82
2023/08/16 10:05:54;;;;;;;5.75;3.80;;;23.00;99.90;;;;;;5059796;28;20246;-80
2023/08/16 10:08:22;;;;;;;9.25;4.22;;;22.80;99.90;;;;;;5058555;28;20223;-81
2023/08/16 10:10:48;;;;;;;6.18;4.00;;;22.70;99.90;;;;;;5060217;28;20211;-81
2023/08/16 10:13:16;;;;;;;5.95;3.90;;;22.90;99.90;;;;;;5059252;28;20578;-81
2023/08/16 10:15:46;;;;;;;7.45;4.35;;;23.10;99.90;;;;;;5068844;28;20290;-81
2023/08/16 10:18:14;;;;;;;8.77;4.18;;;23.10;99.90;;;;;;5067868;28;20221;-80
2023/08/16 10:20:45;;;;;;;5.63;3.90;;;23.50;99.90;;;;;;5072641;28;20771;-80
2023/08/16 10:23:13;;;;;;;4.40;3.90;;;23.60;99.90;;;;;;5077438;28;20198;-81
2023/08/16 10:25:45;;;;;;;8.18;4.47;;;23.50;99.90;;;;;;5078784;28;20215;-81
2023/08/16 10:28:12;;;;;;;6.40;4.93;;;23.00;99.90;;;;;;5079681;28;20276;-80
2023/08/16 10:30:42;;;;;;;7.78;4.25;;;22.90;99.90;;;;;;5075596;28;20202;-80
2023/08/16 10:33:13;;;;;;;8.02;4.10;;;22.90;99.90;;;;;;5077336;28;20198;-79
2023/08/16 10:35:43;;;;;;;5.28;3.67;;;22.90;99.90;;;;;;5078379;28;20202;-79
2023/08/16 10:38:10;;;;;;;7.63;4.20;;;22.70;99.90;;;;;;5077193;28;20583;-80
2023/08/16 10:40:37;;;;;;;5.95;3.88;;;22.90;99.90;;;;;;5073966;28;20573;-80
2023/08/16 10:43:06;;;;;;;4.28;3.33;;;22.90;99.90;;;;;;5077097;28;20664;-80
2023/08/16 10:45:35;;;;;;;6.38;3.97;;;22.90;99.90;;;;;;5062963;28;20574;-80
2023/08/16 10:48:10;;;;;;;7.15;4.00;;;23.30;99.90;;;;;;5069996;28;20550;-79
2023/08/16 10:50:37;;;;;;;3.53;3.22;;;22.90;99.90;;;;;;5078669;28;20202;-79
2023/08/16 10:53:05;;;;;;;4.32;3.50;;;23.20;99.90;;;;;;5078573;28;20206;-80
2023/08/16 10:55:33;;;;;;;5.32;3.47;;;23.60;99.90;;;;;;5078792;28;20199;-80
2023/08/16 10:58:00;;;;;;;5.05;3.25;;;23.70;99.90;;;;;;5066222;28;20227;-79
2023/08/16 11:00:34;;;;;;;4.60;3.65;;;23.50;99.90;;;;;;5072121;28;20237;-80
2023/08/16 11:03:04;;;;;;;6.85;3.60;;;23.40;99.90;;;;;;5078656;28;20237;-80
2023/08/16 11:05:33;;;;;;;6.10;3.47;;;23.10;99.90;;;;;;5078187;28;20289;-80
2023/08/16 11:08:01;;;;;;;6.18;3.75;;;23.20;99.90;;;;;;5078656;28;20203;-80
2023/08/16 11:10:38;;;;;;;4.55;3.38;;;23.20;99.90;;;;;;5079452;28;20292;-80
2023/08/16 11:13:11;;;;;;;6.30;3.20;;;23.40;99.90;;;;;;5078618;28;20206;-79
2023/08/16 11:15:38;;;;;;;7.20;3.92;;;23.40;99.90;;;;;;5061703;28;20269;-80
2023/08/16 11:18:06;;;;;;;4.68;3.50;;;23.50;99.90;;;;;;5057335;28;20203;-79
2023/08/16 11:20:33;;;;;;;6.60;3.30;;;23.60;99.90;;;;;;5057208;28;20206;-80
2023/08/16 11:23:00;;;;;;;6.10;3.47;;;24.40;99.90;;;;;;5056922;28;20229;-80
2023/08/16 11:25:32;;;;;;;6.70;3.50;;;24.80;99.90;;;;;;5056451;28;20199;-80
2023/08/16 11:28:03;;;;;;;5.85;3.40;;;24.10;99.90;;;;;;5057947;28;20706;-80
2023/08/16 11:30:30;;;;;;;4.28;3.28;;;23.70;99.90;;;;;;5058397;28;20202;-79
2023/08/16 11:32:57;;;;;;;4.85;3.67;;;24.10;99.90;;;;;;5058605;28;20257;-79
2023/08/16 11:35:24;;;;;;;8.15;3.75;;;24.00;99.90;;;;;;5057333;28;20206;-80
2023/08/16 11:37:53;;;;;;;4.63;3.38;;;23.80;99.90;;;;;;5070436;28;20221;-80
2023/08/16 11:40:22;;;;;;;5.78;3.70;;;23.80;99.90;;;;;;5082673;28;20190;-80
2023/08/16 11:42:50;;;;;;;6.82;3.65;;;24.00;99.90;;;;;;5064919;28;20209;-80
2023/08/16 11:45:20;;;;;;;7.93;3.97;;;24.40;99.90;;;;;;5069926;28;20194;-80
2023/08/16 11:47:51;;;;;;;4.45;3.33;;;24.10;99.90;;;;;;5069265;28;20226;-80
2023/08/16 11:50:18;;;;;;;6.30;3.83;;;23.90;99.90;;;;;;5068413;28;20198;-81
2023/08/16 11:52:47;;;;;;;5.47;3.50;;;23.70;99.90;;;;;;5076700;28;20237;-80
2023/08/16 11:55:15;;;;;;;5.97;3.80;;;23.60;99.90;;;;;;5075265;28;20656;-81
2023/08/16 11:57:45;;;;;;;4.95;3.85;;;23.80;99.90;;;;;;5068387;28;20227;-80
2023/08/16 12:00:15;;;;;;;7.47;3.58;;;23.70;99.90;;;;;;5066735;28;20244;-79
2023/08/16 12:02:44;;;;;;;6.30;3.58;;;24.00;99.90;;;;;;5062669;28;20229;-80
2023/08/16 12:05:11;;;;;;;4.40;3.30;;;24.00;99.90;;;;;;5067153;28;20244;-80
2023/08/16 12:07:45;;;;;;;6.47;3.72;;;24.00;99.90;;;;;;5059749;28;20254;-80
2023/08/16 12:10:26;;;;;;;6.70;3.40;;;24.00;99.90;;;;;;5063639;28;20234;-80
2023/08/16 12:12:55;;;;;;;7.78;3.75;;;23.80;99.90;;;;;;5060905;28;20479;-80
2023/08/16 12:15:26;;;;;;;6.32;3.47;;;24.00;99.90;;;;;;5060108;28;20284;-81
2023/08/16 12:17:56;;;;;;;6.50;3.53;;;23.90;99.90;;;;;;5067771;28;20213;-80
2023/08/16 12:20:24;;;;;;;5.72;3.60;;;24.00;99.90;;;;;;5066265;28;20203;-81
2023/08/16 12:22:52;;;;;;;6.97;3.42;;;24.30;99.90;;;;;;5062369;28;20199;-82
2023/08/16 12:25:20;;;;;;;6.38;3.50;;;24.30;99.90;;;;;;5065311;28;20199;-81
2023/08/16 12:27:47;;;;;;;4.82;3.10;;;24.40;99.90;;;;;;5064548;28;20281;-80
2023/08/16 12:30:14;;;;;;;5.93;3.40;;;24.20;99.90;;;;;;5060288;28;20627;-81
2023/08/16 12:32:42;;;;;;;6.07;3.47;;;24.10;99.90;;;;;;5059535;28;20706;-80
2023/08/16 12:35:11;;;;;;;4.63;3.30;;;24.10;99.90;;;;;;5060251;28;20201;-79
2023/08/16 12:37:38;;;;;;;4.05;3.30;;;24.00;99.90;;;;;;5058307;28;20203;-81
2023/08/16 12:40:05;;;;;;;4.47;3.22;;;23.80;99.90;;;;;;5058550;28;20658;-80